sensor_id;sensor_type;location;lat;lon;timestamp;temperature;humidity
24636;DHT22;12772;49.794;10.024;2023-03-30T00:00:00;14.70;39.90
24636;DHT22;12772;49.794;10.024;2023-03-30T00:04:13;14.70;39.70
24636;DHT22;12772;49.794;10.024;2023-03-30T00:08:16;14.70;39.60
24636;DHT22;12772;49.794;10.024;2023-03-30T00:12:18;14.70;39.50
24636;DHT22;12772;49.794;10.024;2023-03-30T00:16:20;14.70;39.60
24636;DHT22;12772;49.794;10.024;2023-03-30T00:20:22;14.70;39.60
24636;DHT22;12772;49.794;10.024;2023-03-30T00:24:24;14.60;39.70
24636;DHT22;12772;49.794;10.024;2023-03-30T00:28:27;14.60;39.90
24636;DHT22;12772;49.794;10.024;2023-03-30T00:32:30;14.60;39.90
24636;DHT22;12772;49.794;10.024;2023-03-30T00:36:34;14.50;39.90
24636;DHT22;12772;49.794;10.024;2023-03-30T00:40:36;14.50;39.80
24636;DHT22;12772;49.794;10.024;2023-03-30T00:45:17;14.50;39.60
24636;DHT22;12772;49.794;10.024;2023-03-30T00:49:20;14.50;39.50
24636;DHT22;12772;49.794;10.024;2023-03-30T00:53:32;14.40;39.30
24636;DHT22;12772;49.794;10.024;2023-03-30T00:57:36;14.40;39.20
24636;DHT22;12772;49.794;10.024;2023-03-30T01:01:40;14.40;39.20
24636;DHT22;12772;49.794;10.024;2023-03-30T01:05:42;14.40;39.30
24636;DHT22;12772;49.794;10.024;2023-03-30T01:09:46;14.50;39.40
24636;DHT22;12772;49.794;10.024;2023-03-30T01:13:53;14.50;39.10
24636;DHT22;12772;49.794;10.024;2023-03-30T01:18:17;14.50;39.00
24636;DHT22;12772;49.794;10.024;2023-03-30T01:23:14;14.60;38.90
24636;DHT22;12772;49.794;10.024;2023-03-30T01:41:05;14.70;39.20
24636;DHT22;12772;49.794;10.024;2023-03-30T01:45:13;14.70;39.20
24636;DHT22;12772;49.794;10.024;2023-03-30T01:49:29;14.70;39.40
24636;DHT22;12772;49.794;10.024;2023-03-30T01:54:11;14.70;39.40
24636;DHT22;12772;49.794;10.024;2023-03-30T01:58:13;14.80;39.60
24636;DHT22;12772;49.794;10.024;2023-03-30T02:02:19;14.80;39.70
24636;DHT22;12772;49.794;10.024;2023-03-30T02:06:31;14.80;39.80
24636;DHT22;12772;49.794;10.024;2023-03-30T02:10:40;14.80;39.90
24636;DHT22;12772;49.794;10.024;2023-03-30T02:14:43;14.90;40.10
24636;DHT22;12772;49.794;10.024;2023-03-30T02:18:47;14.90;40.10
24636;DHT22;12772;49.794;10.024;2023-03-30T02:22:49;15.00;40.20
24636;DHT22;12772;49.794;10.024;2023-03-30T02:26:53;15.00;40.20
24636;DHT22;12772;49.794;10.024;2023-03-30T02:30:55;15.10;40.30
24636;DHT22;12772;49.794;10.024;2023-03-30T02:35:16;15.10;40.30
24636;DHT22;12772;49.794;10.024;2023-03-30T02:39:43;15.20;40.40
24636;DHT22;12772;49.794;10.024;2023-03-30T02:48:11;15.20;40.50
24636;DHT22;12772;49.794;10.024;2023-03-30T03:01:09;15.30;40.50
24636;DHT22;12772;49.794;10.024;2023-03-30T03:05:14;15.30;40.50
24636;DHT22;12772;49.794;10.024;2023-03-30T03:09:18;15.40;40.60
24636;DHT22;12772;49.794;10.024;2023-03-30T03:13:20;15.40;40.50
24636;DHT22;12772;49.794;10.024;2023-03-30T03:17:24;15.40;40.50
24636;DHT22;12772;49.794;10.024;2023-03-30T03:21:29;15.40;40.50
24636;DHT22;12772;49.794;10.024;2023-03-30T03:25:31;15.40;40.50
24636;DHT22;12772;49.794;10.024;2023-03-30T03:29:33;15.50;40.60
24636;DHT22;12772;49.794;10.024;2023-03-30T03:33:36;15.50;40.80
24636;DHT22;12772;49.794;10.024;2023-03-30T03:37:38;15.50;40.80
24636;DHT22;12772;49.794;10.024;2023-03-30T03:41:40;15.50;40.90
24636;DHT22;12772;49.794;10.024;2023-03-30T03:45:46;15.40;41.00
24636;DHT22;12772;49.794;10.024;2023-03-30T03:49:49;15.40;41.40
24636;DHT22;12772;49.794;10.024;2023-03-30T03:53:51;15.40;41.80
24636;DHT22;12772;49.794;10.024;2023-03-30T03:57:53;15.40;42.10
24636;DHT22;12772;49.794;10.024;2023-03-30T04:01:55;15.40;42.50
24636;DHT22;12772;49.794;10.024;2023-03-30T04:05:58;15.40;42.50
24636;DHT22;12772;49.794;10.024;2023-03-30T04:10:06;15.40;43.00
24636;DHT22;12772;49.794;10.024;2023-03-30T04:14:08;15.40;43.80
24636;DHT22;12772;49.794;10.024;2023-03-30T04:18:10;15.40;44.60
24636;DHT22;12772;49.794;10.024;2023-03-30T04:22:12;15.40;45.00
24636;DHT22;12772;49.794;10.024;2023-03-30T04:26:14;15.30;45.80
24636;DHT22;12772;49.794;10.024;2023-03-30T04:30:18;15.30;46.50
24636;DHT22;12772;49.794;10.024;2023-03-30T04:34:20;15.30;47.20
24636;DHT22;12772;49.794;10.024;2023-03-30T04:38:22;15.20;47.80
24636;DHT22;12772;49.794;10.024;2023-03-30T04:42:25;15.20;49.10
24636;DHT22;12772;49.794;10.024;2023-03-30T04:46:30;15.20;48.80
24636;DHT22;12772;49.794;10.024;2023-03-30T04:50:32;15.10;49.50
24636;DHT22;12772;49.794;10.024;2023-03-30T04:54:34;15.10;49.50
24636;DHT22;12772;49.794;10.024;2023-03-30T04:58:36;15.10;49.50
24636;DHT22;12772;49.794;10.024;2023-03-30T05:02:38;15.10;49.50
24636;DHT22;12772;49.794;10.024;2023-03-30T05:06:40;15.00;49.40
24636;DHT22;12772;49.794;10.024;2023-03-30T05:10:43;15.10;50.50
24636;DHT22;12772;49.794;10.024;2023-03-30T05:14:45;15.10;50.50
24636;DHT22;12772;49.794;10.024;2023-03-30T05:18:47;15.00;50.70
24636;DHT22;12772;49.794;10.024;2023-03-30T05:22:50;15.00;51.00
24636;DHT22;12772;49.794;10.024;2023-03-30T05:26:53;15.00;51.30
24636;DHT22;12772;49.794;10.024;2023-03-30T05:30:56;15.00;51.80
24636;DHT22;12772;49.794;10.024;2023-03-30T05:34:58;15.00;52.60
24636;DHT22;12772;49.794;10.024;2023-03-30T05:39:00;15.00;52.90
24636;DHT22;12772;49.794;10.024;2023-03-30T05:43:04;15.00;53.40
24636;DHT22;12772;49.794;10.024;2023-03-30T05:47:06;15.00;53.40
24636;DHT22;12772;49.794;10.024;2023-03-30T05:51:08;15.00;53.60
24636;DHT22;12772;49.794;10.024;2023-03-30T05:55:11;15.00;53.60
24636;DHT22;12772;49.794;10.024;2023-03-30T05:59:13;15.00;53.50
24636;DHT22;12772;49.794;10.024;2023-03-30T06:03:15;15.10;53.60
24636;DHT22;12772;49.794;10.024;2023-03-30T06:07:18;15.10;53.60
24636;DHT22;12772;49.794;10.024;2023-03-30T06:11:20;15.10;53.60
24636;DHT22;12772;49.794;10.024;2023-03-30T06:15:22;15.20;53.80
24636;DHT22;12772;49.794;10.024;2023-03-30T06:19:24;15.20;53.50
24636;DHT22;12772;49.794;10.024;2023-03-30T06:23:27;15.10;53.80
24636;DHT22;12772;49.794;10.024;2023-03-30T06:27:29;15.10;54.40
24636;DHT22;12772;49.794;10.024;2023-03-30T06:31:32;15.10;54.60
24636;DHT22;12772;49.794;10.024;2023-03-30T06:35:34;15.10;55.30
24636;DHT22;12772;49.794;10.024;2023-03-30T06:39:36;15.10;55.80
24636;DHT22;12772;49.794;10.024;2023-03-30T06:43:39;15.00;56.10
24636;DHT22;12772;49.794;10.024;2023-03-30T06:47:41;15.00;56.50
24636;DHT22;12772;49.794;10.024;2023-03-30T06:51:43;15.10;57.00
24636;DHT22;12772;49.794;10.024;2023-03-30T06:55:53;15.00;57.60
24636;DHT22;12772;49.794;10.024;2023-03-30T06:59:56;14.90;58.60
24636;DHT22;12772;49.794;10.024;2023-03-30T07:03:58;14.80;59.00
24636;DHT22;12772;49.794;10.024;2023-03-30T07:08:00;14.80;59.20
24636;DHT22;12772;49.794;10.024;2023-03-30T07:12:02;14.80;59.70
24636;DHT22;12772;49.794;10.024;2023-03-30T07:16:05;14.70;60.00
24636;DHT22;12772;49.794;10.024;2023-03-30T07:20:08;14.70;60.30
24636;DHT22;12772;49.794;10.024;2023-03-30T07:24:10;14.80;60.70
24636;DHT22;12772;49.794;10.024;2023-03-30T07:28:13;14.80;60.70
24636;DHT22;12772;49.794;10.024;2023-03-30T07:32:16;14.80;61.60
24636;DHT22;12772;49.794;10.024;2023-03-30T07:36:18;14.70;61.80
24636;DHT22;12772;49.794;10.024;2023-03-30T07:40:20;14.70;62.60
24636;DHT22;12772;49.794;10.024;2023-03-30T07:44:23;14.60;63.50
24636;DHT22;12772;49.794;10.024;2023-03-30T07:48:57;14.60;64.40
24636;DHT22;12772;49.794;10.024;2023-03-30T08:01:15;14.40;64.20
24636;DHT22;12772;49.794;10.024;2023-03-30T08:05:17;14.10;67.90
24636;DHT22;12772;49.794;10.024;2023-03-30T08:09:19;14.10;70.10
24636;DHT22;12772;49.794;10.024;2023-03-30T10:17:01;12.60;95.60
24636;DHT22;12772;49.794;10.024;2023-03-30T10:21:18;12.80;97.30
24636;DHT22;12772;49.794;10.024;2023-03-30T10:25:25;13.30;96.10
24636;DHT22;12772;49.794;10.024;2023-03-30T10:29:28;13.70;92.70
24636;DHT22;12772;49.794;10.024;2023-03-30T10:33:37;14.10;89.90
24636;DHT22;12772;49.794;10.024;2023-03-30T10:37:43;14.50;86.70
24636;DHT22;12772;49.794;10.024;2023-03-30T10:41:48;14.80;82.30
24636;DHT22;12772;49.794;10.024;2023-03-30T10:45:53;15.10;78.60
24636;DHT22;12772;49.794;10.024;2023-03-30T10:54:14;15.40;74.60
24636;DHT22;12772;49.794;10.024;2023-03-30T10:58:30;15.50;73.40
24636;DHT22;12772;49.794;10.024;2023-03-30T11:02:59;15.60;72.70
24636;DHT22;12772;49.794;10.024;2023-03-30T11:07:04;15.70;71.10
24636;DHT22;12772;49.794;10.024;2023-03-30T11:11:20;15.70;71.10
24636;DHT22;12772;49.794;10.024;2023-03-30T11:19:57;15.90;70.00
24636;DHT22;12772;49.794;10.024;2023-03-30T11:24:21;16.00;68.70
24636;DHT22;12772;49.794;10.024;2023-03-30T11:28:34;16.10;67.10
24636;DHT22;12772;49.794;10.024;2023-03-30T11:32:57;16.20;66.30
24636;DHT22;12772;49.794;10.024;2023-03-30T11:41:42;16.50;64.80
24636;DHT22;12772;49.794;10.024;2023-03-30T11:45:50;16.60;63.00
24636;DHT22;12772;49.794;10.024;2023-03-30T11:50:14;16.80;62.70
24636;DHT22;12772;49.794;10.024;2023-03-30T11:54:41;16.90;61.20
24636;DHT22;12772;49.794;10.024;2023-03-30T11:58:59;16.90;60.90
24636;DHT22;12772;49.794;10.024;2023-03-30T12:03:06;16.90;60.00
24636;DHT22;12772;49.794;10.024;2023-03-30T12:07:26;16.90;59.50
24636;DHT22;12772;49.794;10.024;2023-03-30T12:16:02;16.90;59.10
24636;DHT22;12772;49.794;10.024;2023-03-30T12:24:24;16.90;57.10
24636;DHT22;12772;49.794;10.024;2023-03-30T13:26:22;18.30;47.50
24636;DHT22;12772;49.794;10.024;2023-03-30T13:30:27;18.40;46.80
24636;DHT22;12772;49.794;10.024;2023-03-30T13:34:54;18.60;45.90
24636;DHT22;12772;49.794;10.024;2023-03-30T13:39:21;18.60;42.80
24636;DHT22;12772;49.794;10.024;2023-03-30T13:43:39;18.60;42.30
24636;DHT22;12772;49.794;10.024;2023-03-30T13:51:52;18.50;40.90
24636;DHT22;12772;49.794;10.024;2023-03-30T13:55:55;18.40;39.40
24636;DHT22;12772;49.794;10.024;2023-03-30T14:00:24;18.20;38.70
24636;DHT22;12772;49.794;10.024;2023-03-30T14:04:32;18.00;37.20
24636;DHT22;12772;49.794;10.024;2023-03-30T14:08:37;17.80;36.80
24636;DHT22;12772;49.794;10.024;2023-03-30T14:12:40;17.70;38.70
24636;DHT22;12772;49.794;10.024;2023-03-30T14:16:42;17.70;38.70
24636;DHT22;12772;49.794;10.024;2023-03-30T14:20:55;17.90;40.50
24636;DHT22;12772;49.794;10.024;2023-03-30T14:24:59;18.10;41.20
24636;DHT22;12772;49.794;10.024;2023-03-30T14:29:05;18.30;41.30
24636;DHT22;12772;49.794;10.024;2023-03-30T14:33:13;18.40;41.50
24636;DHT22;12772;49.794;10.024;2023-03-30T14:37:17;18.50;42.10
24636;DHT22;12772;49.794;10.024;2023-03-30T14:41:22;18.60;42.00
24636;DHT22;12772;49.794;10.024;2023-03-30T14:45:24;18.60;42.20
24636;DHT22;12772;49.794;10.024;2023-03-30T14:49:28;18.50;41.80
24636;DHT22;12772;49.794;10.024;2023-03-30T14:53:33;18.50;42.10
24636;DHT22;12772;49.794;10.024;2023-03-30T14:57:38;18.40;41.90
24636;DHT22;12772;49.794;10.024;2023-03-30T15:01:41;18.40;41.60
24636;DHT22;12772;49.794;10.024;2023-03-30T15:05:44;18.40;40.30
24636;DHT22;12772;49.794;10.024;2023-03-30T15:09:52;18.40;41.60
24636;DHT22;12772;49.794;10.024;2023-03-30T15:13:56;18.30;41.40
24636;DHT22;12772;49.794;10.024;2023-03-30T15:18:03;18.30;40.90
24636;DHT22;12772;49.794;10.024;2023-03-30T15:26:17;18.20;41.00
24636;DHT22;12772;49.794;10.024;2023-03-30T15:30:41;18.20;41.90
24636;DHT22;12772;49.794;10.024;2023-03-30T15:39:28;18.00;44.20
24636;DHT22;12772;49.794;10.024;2023-03-30T15:43:35;17.80;44.90
24636;DHT22;12772;49.794;10.024;2023-03-30T15:47:38;17.70;46.20
24636;DHT22;12772;49.794;10.024;2023-03-30T15:51:44;17.50;47.00
24636;DHT22;12772;49.794;10.024;2023-03-30T15:55:49;17.30;47.90
24636;DHT22;12772;49.794;10.024;2023-03-30T16:03:59;17.10;51.80
24636;DHT22;12772;49.794;10.024;2023-03-30T16:08:01;17.10;51.80
24636;DHT22;12772;49.794;10.024;2023-03-30T16:12:05;17.00;53.50
24636;DHT22;12772;49.794;10.024;2023-03-30T16:16:07;16.90;54.80
24636;DHT22;12772;49.794;10.024;2023-03-30T16:20:35;16.70;56.10
24636;DHT22;12772;49.794;10.024;2023-03-30T16:24:36;16.60;57.30
24636;DHT22;12772;49.794;10.024;2023-03-30T16:28:38;16.50;59.10
24636;DHT22;12772;49.794;10.024;2023-03-30T16:32:41;16.50;59.70
24636;DHT22;12772;49.794;10.024;2023-03-30T16:36:43;16.50;59.00
24636;DHT22;12772;49.794;10.024;2023-03-30T16:40:52;16.60;58.60
24636;DHT22;12772;49.794;10.024;2023-03-30T16:44:55;16.60;56.50
24636;DHT22;12772;49.794;10.024;2023-03-30T16:48:57;16.50;55.40
24636;DHT22;12772;49.794;10.024;2023-03-30T16:52:59;16.50;55.50
24636;DHT22;12772;49.794;10.024;2023-03-30T16:57:02;16.40;55.90
24636;DHT22;12772;49.794;10.024;2023-03-30T17:01:04;16.40;56.10
24636;DHT22;12772;49.794;10.024;2023-03-30T17:05:06;16.40;56.50
24636;DHT22;12772;49.794;10.024;2023-03-30T17:09:12;16.30;56.60
24636;DHT22;12772;49.794;10.024;2023-03-30T17:13:15;16.30;56.60
24636;DHT22;12772;49.794;10.024;2023-03-30T17:17:17;16.20;56.90
24636;DHT22;12772;49.794;10.024;2023-03-30T17:21:19;16.10;57.30
24636;DHT22;12772;49.794;10.024;2023-03-30T17:25:22;16.10;57.80
24636;DHT22;12772;49.794;10.024;2023-03-30T17:29:26;16.10;58.40
24636;DHT22;12772;49.794;10.024;2023-03-30T17:33:28;16.10;58.90
24636;DHT22;12772;49.794;10.024;2023-03-30T17:37:31;16.00;59.30
24636;DHT22;12772;49.794;10.024;2023-03-30T17:41:33;16.00;59.60
24636;DHT22;12772;49.794;10.024;2023-03-30T17:45:37;16.00;60.00
24636;DHT22;12772;49.794;10.024;2023-03-30T17:49:39;15.90;60.00
24636;DHT22;12772;49.794;10.024;2023-03-30T17:53:42;15.90;60.20
24636;DHT22;12772;49.794;10.024;2023-03-30T17:57:44;15.90;59.70
24636;DHT22;12772;49.794;10.024;2023-03-30T18:01:46;15.80;58.70
24636;DHT22;12772;49.794;10.024;2023-03-30T18:05:49;15.70;58.40
24636;DHT22;12772;49.794;10.024;2023-03-30T18:09:51;15.70;58.10
24636;DHT22;12772;49.794;10.024;2023-03-30T18:13:53;15.60;58.20
24636;DHT22;12772;49.794;10.024;2023-03-30T18:17:57;15.60;58.30
24636;DHT22;12772;49.794;10.024;2023-03-30T18:21:59;15.50;58.40
24636;DHT22;12772;49.794;10.024;2023-03-30T18:26:02;15.50;58.00
24636;DHT22;12772;49.794;10.024;2023-03-30T18:34:16;15.40;58.00
24636;DHT22;12772;49.794;10.024;2023-03-30T18:38:21;15.30;58.30
24636;DHT22;12772;49.794;10.024;2023-03-30T18:42:24;15.40;58.50
24636;DHT22;12772;49.794;10.024;2023-03-30T18:46:26;15.40;58.20
24636;DHT22;12772;49.794;10.024;2023-03-30T18:50:40;15.30;58.40
24636;DHT22;12772;49.794;10.024;2023-03-30T18:54:42;15.30;58.60
24636;DHT22;12772;49.794;10.024;2023-03-30T18:58:44;15.30;58.90
24636;DHT22;12772;49.794;10.024;2023-03-30T19:02:47;15.20;59.00
24636;DHT22;12772;49.794;10.024;2023-03-30T19:06:49;15.20;58.70
24636;DHT22;12772;49.794;10.024;2023-03-30T19:10:55;15.20;57.70
24636;DHT22;12772;49.794;10.024;2023-03-30T19:14:57;15.10;57.30
24636;DHT22;12772;49.794;10.024;2023-03-30T19:18:59;15.10;56.90
24636;DHT22;12772;49.794;10.024;2023-03-30T19:23:01;15.10;56.80
24636;DHT22;12772;49.794;10.024;2023-03-30T19:27:04;15.00;56.10
24636;DHT22;12772;49.794;10.024;2023-03-30T19:31:09;14.90;56.20
24636;DHT22;12772;49.794;10.024;2023-03-30T19:35:16;15.00;56.50
24636;DHT22;12772;49.794;10.024;2023-03-30T19:39:18;14.90;56.20
24636;DHT22;12772;49.794;10.024;2023-03-30T19:43:20;14.90;56.20
24636;DHT22;12772;49.794;10.024;2023-03-30T19:47:22;14.80;56.30
24636;DHT22;12772;49.794;10.024;2023-03-30T19:51:28;14.80;56.30
24636;DHT22;12772;49.794;10.024;2023-03-30T19:55:30;14.70;56.30
24636;DHT22;12772;49.794;10.024;2023-03-30T19:59:32;14.70;55.80
24636;DHT22;12772;49.794;10.024;2023-03-30T20:03:34;14.60;55.40
24636;DHT22;12772;49.794;10.024;2023-03-30T20:07:37;14.50;55.50
24636;DHT22;12772;49.794;10.024;2023-03-30T20:11:39;14.50;55.00
24636;DHT22;12772;49.794;10.024;2023-03-30T20:15:41;14.50;54.60
24636;DHT22;12772;49.794;10.024;2023-03-30T20:19:43;14.50;53.80
24636;DHT22;12772;49.794;10.024;2023-03-30T20:23:46;14.50;53.30
24636;DHT22;12772;49.794;10.024;2023-03-30T20:27:48;14.40;53.20
24636;DHT22;12772;49.794;10.024;2023-03-30T20:31:50;14.40;53.40
24636;DHT22;12772;49.794;10.024;2023-03-30T20:35:52;14.40;53.80
24636;DHT22;12772;49.794;10.024;2023-03-30T20:39:54;14.40;53.80
24636;DHT22;12772;49.794;10.024;2023-03-30T20:44:01;14.50;53.80
24636;DHT22;12772;49.794;10.024;2023-03-30T20:48:05;14.40;53.70
24636;DHT22;12772;49.794;10.024;2023-03-30T20:52:15;14.40;54.00
24636;DHT22;12772;49.794;10.024;2023-03-30T20:56:18;14.30;54.20
24636;DHT22;12772;49.794;10.024;2023-03-30T21:00:20;14.30;54.30
24636;DHT22;12772;49.794;10.024;2023-03-30T21:04:23;14.30;54.30
24636;DHT22;12772;49.794;10.024;2023-03-30T21:08:25;14.20;54.40
24636;DHT22;12772;49.794;10.024;2023-03-30T21:12:27;14.20;54.60
24636;DHT22;12772;49.794;10.024;2023-03-30T21:16:29;14.30;54.80
24636;DHT22;12772;49.794;10.024;2023-03-30T21:20:31;14.30;55.00
24636;DHT22;12772;49.794;10.024;2023-03-30T21:24:33;14.30;55.10
24636;DHT22;12772;49.794;10.024;2023-03-30T21:28:36;14.30;55.20
24636;DHT22;12772;49.794;10.024;2023-03-30T21:32:38;14.30;55.30
24636;DHT22;12772;49.794;10.024;2023-03-30T21:36:41;14.30;55.40
24636;DHT22;12772;49.794;10.024;2023-03-30T21:40:57;14.30;55.50
24636;DHT22;12772;49.794;10.024;2023-03-30T21:45:00;14.30;55.60
24636;DHT22;12772;49.794;10.024;2023-03-30T21:49:02;14.30;55.60
24636;DHT22;12772;49.794;10.024;2023-03-30T21:53:04;14.20;55.80
24636;DHT22;12772;49.794;10.024;2023-03-30T21:57:06;14.20;56.00
24636;DHT22;12772;49.794;10.024;2023-03-30T22:01:09;14.10;56.30
24636;DHT22;12772;49.794;10.024;2023-03-30T22:05:11;14.10;56.60
24636;DHT22;12772;49.794;10.024;2023-03-30T22:09:13;14.10;56.80
24636;DHT22;12772;49.794;10.024;2023-03-30T22:13:15;14.00;57.70
24636;DHT22;12772;49.794;10.024;2023-03-30T22:17:17;14.00;57.30
24636;DHT22;12772;49.794;10.024;2023-03-30T22:21:21;14.00;57.70
24636;DHT22;12772;49.794;10.024;2023-03-30T22:25:24;14.00;57.90
24636;DHT22;12772;49.794;10.024;2023-03-30T22:29:26;14.00;58.00
24636;DHT22;12772;49.794;10.024;2023-03-30T22:33:28;14.00;58.40
24636;DHT22;12772;49.794;10.024;2023-03-30T22:37:30;13.90;58.50
24636;DHT22;12772;49.794;10.024;2023-03-30T22:41:32;13.90;58.60
24636;DHT22;12772;49.794;10.024;2023-03-30T22:45:34;13.80;58.50
24636;DHT22;12772;49.794;10.024;2023-03-30T22:49:36;13.90;58.80
24636;DHT22;12772;49.794;10.024;2023-03-30T22:53:39;13.80;58.60
24636;DHT22;12772;49.794;10.024;2023-03-30T22:57:41;13.90;58.70
24636;DHT22;12772;49.794;10.024;2023-03-30T23:01:43;13.80;58.70
24636;DHT22;12772;49.794;10.024;2023-03-30T23:05:52;13.80;59.00
24636;DHT22;12772;49.794;10.024;2023-03-30T23:09:56;13.80;59.00
24636;DHT22;12772;49.794;10.024;2023-03-30T23:13:58;13.70;59.10
24636;DHT22;12772;49.794;10.024;2023-03-30T23:18:04;13.70;59.30
24636;DHT22;12772;49.794;10.024;2023-03-30T23:22:06;13.60;59.50
24636;DHT22;12772;49.794;10.024;2023-03-30T23:26:09;13.50;59.70
24636;DHT22;12772;49.794;10.024;2023-03-30T23:30:12;13.50;60.10
24636;DHT22;12772;49.794;10.024;2023-03-30T23:34:14;13.40;60.50
24636;DHT22;12772;49.794;10.024;2023-03-30T23:38:16;13.50;60.60
24636;DHT22;12772;49.794;10.024;2023-03-30T23:42:18;13.40;60.60
24636;DHT22;12772;49.794;10.024;2023-03-30T23:46:20;13.50;60.60
24636;DHT22;12772;49.794;10.024;2023-03-30T23:50:23;13.50;60.60
24636;DHT22;12772;49.794;10.024;2023-03-30T23:54:25;13.50;60.60
24636;DHT22;12772;49.794;10.024;2023-03-30T23:58:31;13.50;60.60
